sensor_id;sensor_type;location;lat;lon;timestamp;P1;durP1;ratioP1;P2;durP2;ratioP2
29848;SDS011;16728;50.832;5.590;2022-09-09T00:08:45;2.15;;;0.75;;
29848;SDS011;16728;50.832;5.590;2022-09-09T00:12:04;1.13;;;0.52;;
29848;SDS011;16728;50.832;5.590;2022-09-09T00:15:41;3.38;;;0.80;;
29848;SDS011;16728;50.832;5.590;2022-09-09T00:22:20;3.60;;;0.82;;
29848;SDS011;16728;50.832;5.590;2022-09-09T00:25:46;2.60;;;0.80;;
29848;SDS011;16728;50.832;5.590;2022-09-09T00:29:02;3.53;;;0.82;;
29848;SDS011;16728;50.832;5.590;2022-09-09T00:32:13;0.95;;;0.60;;
29848;SDS011;16728;50.832;5.590;2022-09-09T00:38:41;1.75;;;0.73;;
29848;SDS011;16728;50.832;5.590;2022-09-09T00:41:50;4.75;;;0.90;;
29848;SDS011;16728;50.832;5.590;2022-09-09T00:52:17;4.45;;;1.13;;
29848;SDS011;16728;50.832;5.590;2022-09-09T00:55:45;3.85;;;1.00;;
29848;SDS011;16728;50.832;5.590;2022-09-09T00:58:55;5.55;;;1.20;;
29848;SDS011;16728;50.832;5.590;2022-09-09T01:09:36;3.30;;;1.13;;
29848;SDS011;16728;50.832;5.590;2022-09-09T01:12:46;2.40;;;0.80;;
29848;SDS011;16728;50.832;5.590;2022-09-09T01:15:50;2.17;;;1.08;;
29848;SDS011;16728;50.832;5.590;2022-09-09T01:19:07;3.25;;;1.10;;
29848;SDS011;16728;50.832;5.590;2022-09-09T01:25:56;7.05;;;1.30;;
29848;SDS011;16728;50.832;5.590;2022-09-09T01:29:12;4.68;;;0.85;;
29848;SDS011;16728;50.832;5.590;2022-09-09T01:38:43;4.22;;;1.08;;
29848;SDS011;16728;50.832;5.590;2022-09-09T01:41:45;5.32;;;1.20;;
29848;SDS011;16728;50.832;5.590;2022-09-09T01:44:46;4.95;;;0.93;;
29848;SDS011;16728;50.832;5.590;2022-09-09T01:47:49;2.83;;;0.90;;
29848;SDS011;16728;50.832;5.590;2022-09-09T01:50:53;5.50;;;1.35;;
29848;SDS011;16728;50.832;5.590;2022-09-09T01:53:54;7.25;;;1.23;;
29848;SDS011;16728;50.832;5.590;2022-09-09T02:00:13;4.18;;;1.10;;
29848;SDS011;16728;50.832;5.590;2022-09-09T02:03:21;5.60;;;1.40;;
29848;SDS011;16728;50.832;5.590;2022-09-09T02:06:34;2.50;;;0.88;;
29848;SDS011;16728;50.832;5.590;2022-09-09T02:09:38;3.33;;;1.30;;
29848;SDS011;16728;50.832;5.590;2022-09-09T02:12:46;4.72;;;1.17;;
29848;SDS011;16728;50.832;5.590;2022-09-09T02:15:56;2.95;;;1.40;;
29848;SDS011;16728;50.832;5.590;2022-09-09T02:19:13;2.55;;;1.00;;
29848;SDS011;16728;50.832;5.590;2022-09-09T02:22:19;5.45;;;1.20;;
29848;SDS011;16728;50.832;5.590;2022-09-09T02:25:24;4.85;;;1.17;;
29848;SDS011;16728;50.832;5.590;2022-09-09T02:28:29;3.97;;;1.20;;
29848;SDS011;16728;50.832;5.590;2022-09-09T02:31:33;8.52;;;1.38;;
29848;SDS011;16728;50.832;5.590;2022-09-09T02:37:42;8.00;;;1.30;;
29848;SDS011;16728;50.832;5.590;2022-09-09T02:40:47;5.70;;;1.42;;
29848;SDS011;16728;50.832;5.590;2022-09-09T02:43:49;6.23;;;1.17;;
29848;SDS011;16728;50.832;5.590;2022-09-09T02:50:33;7.55;;;1.10;;
29848;SDS011;16728;50.832;5.590;2022-09-09T02:53:48;6.03;;;1.17;;
29848;SDS011;16728;50.832;5.590;2022-09-09T02:57:03;4.00;;;1.42;;
29848;SDS011;16728;50.832;5.590;2022-09-09T03:00:13;7.13;;;1.40;;
29848;SDS011;16728;50.832;5.590;2022-09-09T03:03:16;4.68;;;1.20;;
29848;SDS011;16728;50.832;5.590;2022-09-09T03:06:19;4.70;;;1.25;;
29848;SDS011;16728;50.832;5.590;2022-09-09T03:09:24;6.97;;;2.17;;
29848;SDS011;16728;50.832;5.590;2022-09-09T03:12:27;4.53;;;1.20;;
29848;SDS011;16728;50.832;5.590;2022-09-09T03:15:29;6.22;;;1.38;;
29848;SDS011;16728;50.832;5.590;2022-09-09T03:18:32;7.40;;;1.50;;
29848;SDS011;16728;50.832;5.590;2022-09-09T03:24:37;4.03;;;1.15;;
29848;SDS011;16728;50.832;5.590;2022-09-09T03:27:39;4.80;;;1.33;;
29848;SDS011;16728;50.832;5.590;2022-09-09T03:30:41;6.32;;;1.63;;
29848;SDS011;16728;50.832;5.590;2022-09-09T03:33:43;6.93;;;1.40;;
29848;SDS011;16728;50.832;5.590;2022-09-09T03:36:44;5.65;;;1.30;;
29848;SDS011;16728;50.832;5.590;2022-09-09T03:39:47;8.57;;;1.38;;
29848;SDS011;16728;50.832;5.590;2022-09-09T03:42:49;9.73;;;1.35;;
29848;SDS011;16728;50.832;5.590;2022-09-09T03:45:51;3.97;;;1.50;;
29848;SDS011;16728;50.832;5.590;2022-09-09T03:48:53;5.93;;;1.33;;
29848;SDS011;16728;50.832;5.590;2022-09-09T03:51:56;5.60;;;1.52;;
29848;SDS011;16728;50.832;5.590;2022-09-09T03:54:59;7.80;;;1.40;;
29848;SDS011;16728;50.832;5.590;2022-09-09T03:58:01;4.13;;;1.38;;
29848;SDS011;16728;50.832;5.590;2022-09-09T04:01:04;6.28;;;1.30;;
29848;SDS011;16728;50.832;5.590;2022-09-09T04:04:10;6.45;;;1.40;;
29848;SDS011;16728;50.832;5.590;2022-09-09T04:07:13;4.10;;;1.30;;
29848;SDS011;16728;50.832;5.590;2022-09-09T04:10:15;5.68;;;1.23;;
29848;SDS011;16728;50.832;5.590;2022-09-09T04:13:17;4.25;;;1.20;;
29848;SDS011;16728;50.832;5.590;2022-09-09T04:16:20;5.43;;;1.33;;
29848;SDS011;16728;50.832;5.590;2022-09-09T04:19:22;5.78;;;1.48;;
29848;SDS011;16728;50.832;5.590;2022-09-09T04:22:24;7.25;;;1.55;;
29848;SDS011;16728;50.832;5.590;2022-09-09T04:25:26;5.22;;;1.45;;
29848;SDS011;16728;50.832;5.590;2022-09-09T04:28:29;6.32;;;1.60;;
29848;SDS011;16728;50.832;5.590;2022-09-09T04:31:33;5.95;;;1.38;;
29848;SDS011;16728;50.832;5.590;2022-09-09T04:34:35;5.35;;;1.65;;
29848;SDS011;16728;50.832;5.590;2022-09-09T04:37:37;7.70;;;1.52;;
29848;SDS011;16728;50.832;5.590;2022-09-09T04:40:41;5.10;;;1.13;;
29848;SDS011;16728;50.832;5.590;2022-09-09T04:43:53;6.65;;;1.80;;
29848;SDS011;16728;50.832;5.590;2022-09-09T04:46:55;6.10;;;1.67;;
29848;SDS011;16728;50.832;5.590;2022-09-09T04:49:57;4.13;;;1.35;;
29848;SDS011;16728;50.832;5.590;2022-09-09T04:53:04;6.88;;;1.60;;
29848;SDS011;16728;50.832;5.590;2022-09-09T04:56:07;7.95;;;1.75;;
29848;SDS011;16728;50.832;5.590;2022-09-09T04:59:15;10.05;;;1.77;;
29848;SDS011;16728;50.832;5.590;2022-09-09T05:02:16;3.22;;;1.17;;
29848;SDS011;16728;50.832;5.590;2022-09-09T05:05:18;7.10;;;1.50;;
29848;SDS011;16728;50.832;5.590;2022-09-09T05:08:20;6.72;;;1.23;;
29848;SDS011;16728;50.832;5.590;2022-09-09T05:11:24;6.70;;;1.40;;
29848;SDS011;16728;50.832;5.590;2022-09-09T05:14:28;5.10;;;1.30;;
29848;SDS011;16728;50.832;5.590;2022-09-09T05:17:31;7.45;;;1.60;;
29848;SDS011;16728;50.832;5.590;2022-09-09T05:20:33;6.90;;;1.73;;
29848;SDS011;16728;50.832;5.590;2022-09-09T05:23:35;5.50;;;1.50;;
29848;SDS011;16728;50.832;5.590;2022-09-09T05:26:38;5.95;;;1.35;;
29848;SDS011;16728;50.832;5.590;2022-09-09T05:29:40;6.68;;;1.40;;
29848;SDS011;16728;50.832;5.590;2022-09-09T05:32:44;10.07;;;1.50;;
29848;SDS011;16728;50.832;5.590;2022-09-09T05:35:46;7.43;;;1.80;;
29848;SDS011;16728;50.832;5.590;2022-09-09T05:38:48;3.75;;;1.33;;
29848;SDS011;16728;50.832;5.590;2022-09-09T05:41:51;8.85;;;2.00;;
29848;SDS011;16728;50.832;5.590;2022-09-09T05:44:52;5.65;;;1.42;;
29848;SDS011;16728;50.832;5.590;2022-09-09T05:47:55;7.72;;;1.70;;
29848;SDS011;16728;50.832;5.590;2022-09-09T05:50:59;11.20;;;1.80;;
29848;SDS011;16728;50.832;5.590;2022-09-09T05:54:01;7.53;;;1.48;;
29848;SDS011;16728;50.832;5.590;2022-09-09T05:57:03;9.13;;;1.92;;
29848;SDS011;16728;50.832;5.590;2022-09-09T06:00:11;8.77;;;2.08;;
29848;SDS011;16728;50.832;5.590;2022-09-09T06:03:16;8.73;;;1.80;;
29848;SDS011;16728;50.832;5.590;2022-09-09T06:06:20;5.22;;;1.48;;
29848;SDS011;16728;50.832;5.590;2022-09-09T06:09:23;7.78;;;1.55;;
29848;SDS011;16728;50.832;5.590;2022-09-09T06:12:25;11.27;;;1.90;;
29848;SDS011;16728;50.832;5.590;2022-09-09T06:15:28;7.10;;;1.20;;
29848;SDS011;16728;50.832;5.590;2022-09-09T06:21:34;8.60;;;1.60;;
29848;SDS011;16728;50.832;5.590;2022-09-09T06:24:41;7.25;;;1.52;;
29848;SDS011;16728;50.832;5.590;2022-09-09T06:27:43;7.68;;;1.60;;
29848;SDS011;16728;50.832;5.590;2022-09-09T06:30:56;8.32;;;1.67;;
29848;SDS011;16728;50.832;5.590;2022-09-09T06:34:03;6.82;;;1.45;;
29848;SDS011;16728;50.832;5.590;2022-09-09T06:37:06;4.75;;;1.40;;
29848;SDS011;16728;50.832;5.590;2022-09-09T06:40:12;8.20;;;2.22;;
29848;SDS011;16728;50.832;5.590;2022-09-09T06:43:16;6.30;;;1.63;;
29848;SDS011;16728;50.832;5.590;2022-09-09T06:46:20;7.28;;;1.52;;
29848;SDS011;16728;50.832;5.590;2022-09-09T06:49:33;5.13;;;1.45;;
29848;SDS011;16728;50.832;5.590;2022-09-09T06:52:36;8.90;;;1.95;;
29848;SDS011;16728;50.832;5.590;2022-09-09T06:55:38;6.75;;;1.63;;
29848;SDS011;16728;50.832;5.590;2022-09-09T06:58:41;9.73;;;1.80;;
29848;SDS011;16728;50.832;5.590;2022-09-09T07:01:45;10.32;;;2.53;;
29848;SDS011;16728;50.832;5.590;2022-09-09T07:04:52;8.70;;;1.92;;
29848;SDS011;16728;50.832;5.590;2022-09-09T07:07:54;7.20;;;1.73;;
29848;SDS011;16728;50.832;5.590;2022-09-09T07:11:01;8.23;;;1.67;;
29848;SDS011;16728;50.832;5.590;2022-09-09T07:14:12;9.38;;;1.98;;
29848;SDS011;16728;50.832;5.590;2022-09-09T07:17:15;9.23;;;1.73;;
29848;SDS011;16728;50.832;5.590;2022-09-09T07:20:17;6.45;;;2.00;;
29848;SDS011;16728;50.832;5.590;2022-09-09T07:23:27;7.35;;;1.67;;
29848;SDS011;16728;50.832;5.590;2022-09-09T07:26:36;12.65;;;1.85;;
29848;SDS011;16728;50.832;5.590;2022-09-09T07:29:38;6.68;;;1.40;;
29848;SDS011;16728;50.832;5.590;2022-09-09T07:32:40;7.45;;;1.55;;
29848;SDS011;16728;50.832;5.590;2022-09-09T07:35:42;5.85;;;1.40;;
29848;SDS011;16728;50.832;5.590;2022-09-09T07:38:46;12.70;;;1.50;;
29848;SDS011;16728;50.832;5.590;2022-09-09T07:41:55;4.05;;;1.40;;
29848;SDS011;16728;50.832;5.590;2022-09-09T07:44:57;6.80;;;1.85;;
29848;SDS011;16728;50.832;5.590;2022-09-09T07:47:59;7.90;;;1.40;;
29848;SDS011;16728;50.832;5.590;2022-09-09T07:51:03;7.63;;;1.30;;
29848;SDS011;16728;50.832;5.590;2022-09-09T07:54:17;7.80;;;1.60;;
29848;SDS011;16728;50.832;5.590;2022-09-09T07:57:24;7.20;;;1.48;;
29848;SDS011;16728;50.832;5.590;2022-09-09T08:00:27;5.72;;;1.50;;
29848;SDS011;16728;50.832;5.590;2022-09-09T08:03:29;6.47;;;1.35;;
29848;SDS011;16728;50.832;5.590;2022-09-09T08:06:32;8.70;;;1.70;;
29848;SDS011;16728;50.832;5.590;2022-09-09T08:09:41;11.55;;;1.83;;
29848;SDS011;16728;50.832;5.590;2022-09-09T08:12:44;8.00;;;1.65;;
29848;SDS011;16728;50.832;5.590;2022-09-09T08:19:11;5.13;;;1.60;;
29848;SDS011;16728;50.832;5.590;2022-09-09T08:22:16;13.82;;;1.73;;
29848;SDS011;16728;50.832;5.590;2022-09-09T08:25:18;8.27;;;1.50;;
29848;SDS011;16728;50.832;5.590;2022-09-09T08:28:19;7.95;;;1.75;;
29848;SDS011;16728;50.832;5.590;2022-09-09T08:34:29;7.07;;;1.50;;
29848;SDS011;16728;50.832;5.590;2022-09-09T08:37:32;5.93;;;1.55;;
29848;SDS011;16728;50.832;5.590;2022-09-09T08:40:34;4.22;;;1.35;;
29848;SDS011;16728;50.832;5.590;2022-09-09T08:43:44;5.60;;;1.15;;
29848;SDS011;16728;50.832;5.590;2022-09-09T08:46:55;8.57;;;1.55;;
29848;SDS011;16728;50.832;5.590;2022-09-09T08:53:38;12.60;;;1.73;;
29848;SDS011;16728;50.832;5.590;2022-09-09T08:56:48;7.72;;;1.50;;
29848;SDS011;16728;50.832;5.590;2022-09-09T08:59:51;6.70;;;1.48;;
29848;SDS011;16728;50.832;5.590;2022-09-09T09:12:29;5.13;;;1.83;;
29848;SDS011;16728;50.832;5.590;2022-09-09T09:15:37;5.20;;;1.50;;
29848;SDS011;16728;50.832;5.590;2022-09-09T09:21:42;6.95;;;1.77;;
29848;SDS011;16728;50.832;5.590;2022-09-09T09:31:25;8.85;;;1.23;;
29848;SDS011;16728;50.832;5.590;2022-09-09T09:34:28;6.23;;;1.40;;
29848;SDS011;16728;50.832;5.590;2022-09-09T09:37:31;3.35;;;1.20;;
29848;SDS011;16728;50.832;5.590;2022-09-09T09:40:36;8.05;;;1.75;;
29848;SDS011;16728;50.832;5.590;2022-09-09T09:43:53;8.73;;;1.50;;
29848;SDS011;16728;50.832;5.590;2022-09-09T09:50:32;3.50;;;1.10;;
29848;SDS011;16728;50.832;5.590;2022-09-09T09:53:36;3.95;;;1.20;;
29848;SDS011;16728;50.832;5.590;2022-09-09T09:56:40;5.00;;;1.05;;
29848;SDS011;16728;50.832;5.590;2022-09-09T09:59:43;4.72;;;1.40;;
29848;SDS011;16728;50.832;5.590;2022-09-09T10:02:47;7.43;;;2.05;;
29848;SDS011;16728;50.832;5.590;2022-09-09T10:05:50;6.57;;;1.58;;
29848;SDS011;16728;50.832;5.590;2022-09-09T10:08:52;3.63;;;1.27;;
29848;SDS011;16728;50.832;5.590;2022-09-09T10:12:05;5.60;;;1.45;;
29848;SDS011;16728;50.832;5.590;2022-09-09T10:15:29;7.10;;;1.75;;
29848;SDS011;16728;50.832;5.590;2022-09-09T10:28:40;7.13;;;1.90;;
29848;SDS011;16728;50.832;5.590;2022-09-09T10:35:43;4.40;;;1.40;;
29848;SDS011;16728;50.832;5.590;2022-09-09T10:42:43;4.00;;;1.33;;
29848;SDS011;16728;50.832;5.590;2022-09-09T10:46:06;4.13;;;1.48;;
29848;SDS011;16728;50.832;5.590;2022-09-09T10:55:44;7.53;;;1.48;;
29848;SDS011;16728;50.832;5.590;2022-09-09T10:58:56;8.43;;;1.40;;
29848;SDS011;16728;50.832;5.590;2022-09-09T11:05:22;5.53;;;1.40;;
29848;SDS011;16728;50.832;5.590;2022-09-09T11:08:33;6.65;;;1.20;;
29848;SDS011;16728;50.832;5.590;2022-09-09T11:11:42;5.95;;;1.33;;
29848;SDS011;16728;50.832;5.590;2022-09-09T11:15:04;3.33;;;1.10;;
29848;SDS011;16728;50.832;5.590;2022-09-09T11:18:11;4.30;;;1.50;;
29848;SDS011;16728;50.832;5.590;2022-09-09T11:21:19;4.43;;;1.40;;
29848;SDS011;16728;50.832;5.590;2022-09-09T11:24:33;8.60;;;1.77;;
29848;SDS011;16728;50.832;5.590;2022-09-09T11:28:02;6.07;;;1.58;;
29848;SDS011;16728;50.832;5.590;2022-09-09T11:40:59;7.85;;;1.40;;
29848;SDS011;16728;50.832;5.590;2022-09-09T11:44:11;4.82;;;1.38;;
29848;SDS011;16728;50.832;5.590;2022-09-09T11:47:26;4.28;;;1.50;;
29848;SDS011;16728;50.832;5.590;2022-09-09T11:50:35;3.95;;;1.38;;
29848;SDS011;16728;50.832;5.590;2022-09-09T11:53:57;9.02;;;1.60;;
29848;SDS011;16728;50.832;5.590;2022-09-09T12:00:06;7.53;;;1.33;;
29848;SDS011;16728;50.832;5.590;2022-09-09T12:13:51;2.85;;;1.27;;
29848;SDS011;16728;50.832;5.590;2022-09-09T12:20:15;6.15;;;1.38;;
29848;SDS011;16728;50.832;5.590;2022-09-09T12:37:04;5.13;;;1.20;;
29848;SDS011;16728;50.832;5.590;2022-09-09T12:39:55;4.97;;;1.35;;
29848;SDS011;16728;50.832;5.590;2022-09-09T12:43:16;10.77;;;1.33;;
29848;SDS011;16728;50.832;5.590;2022-09-09T12:46:23;4.38;;;1.17;;
29848;SDS011;16728;50.832;5.590;2022-09-09T12:49:44;7.00;;;1.20;;
29848;SDS011;16728;50.832;5.590;2022-09-09T12:52:47;4.53;;;1.15;;
29848;SDS011;16728;50.832;5.590;2022-09-09T12:55:52;4.25;;;1.48;;
29848;SDS011;16728;50.832;5.590;2022-09-09T12:59:00;5.30;;;1.42;;
29848;SDS011;16728;50.832;5.590;2022-09-09T13:02:02;4.95;;;1.52;;
29848;SDS011;16728;50.832;5.590;2022-09-09T13:05:14;4.93;;;1.30;;
29848;SDS011;16728;50.832;5.590;2022-09-09T13:08:19;6.68;;;1.40;;
29848;SDS011;16728;50.832;5.590;2022-09-09T13:11:23;4.28;;;1.17;;
29848;SDS011;16728;50.832;5.590;2022-09-09T13:14:30;4.05;;;1.23;;
29848;SDS011;16728;50.832;5.590;2022-09-09T13:17:35;5.45;;;1.30;;
29848;SDS011;16728;50.832;5.590;2022-09-09T13:20:45;4.07;;;1.35;;
29848;SDS011;16728;50.832;5.590;2022-09-09T13:23:49;3.55;;;1.20;;
29848;SDS011;16728;50.832;5.590;2022-09-09T13:27:03;10.60;;;1.30;;
29848;SDS011;16728;50.832;5.590;2022-09-09T13:33:36;5.95;;;1.20;;
29848;SDS011;16728;50.832;5.590;2022-09-09T13:36:46;4.90;;;1.38;;
29848;SDS011;16728;50.832;5.590;2022-09-09T13:39:51;5.45;;;1.00;;
29848;SDS011;16728;50.832;5.590;2022-09-09T13:42:55;5.10;;;1.50;;
29848;SDS011;16728;50.832;5.590;2022-09-09T13:46:23;8.50;;;1.35;;
29848;SDS011;16728;50.832;5.590;2022-09-09T13:49:28;6.05;;;1.25;;
29848;SDS011;16728;50.832;5.590;2022-09-09T13:52:31;3.05;;;0.90;;
29848;SDS011;16728;50.832;5.590;2022-09-09T13:55:36;11.40;;;1.75;;
29848;SDS011;16728;50.832;5.590;2022-09-09T13:58:38;4.43;;;1.10;;
29848;SDS011;16728;50.832;5.590;2022-09-09T14:01:51;8.70;;;1.05;;
29848;SDS011;16728;50.832;5.590;2022-09-09T14:05:00;4.03;;;1.10;;
29848;SDS011;16728;50.832;5.590;2022-09-09T14:08:04;11.73;;;1.17;;
29848;SDS011;16728;50.832;5.590;2022-09-09T14:11:08;5.90;;;1.10;;
29848;SDS011;16728;50.832;5.590;2022-09-09T14:14:13;12.10;;;1.50;;
29848;SDS011;16728;50.832;5.590;2022-09-09T14:17:15;6.57;;;1.23;;
29848;SDS011;16728;50.832;5.590;2022-09-09T14:20:18;10.98;;;1.38;;
29848;SDS011;16728;50.832;5.590;2022-09-09T14:23:20;4.47;;;1.15;;
29848;SDS011;16728;50.832;5.590;2022-09-09T14:26:23;5.57;;;1.23;;
29848;SDS011;16728;50.832;5.590;2022-09-09T14:29:26;3.67;;;0.90;;
29848;SDS011;16728;50.832;5.590;2022-09-09T14:32:28;4.28;;;1.38;;
29848;SDS011;16728;50.832;5.590;2022-09-09T14:35:30;56.50;;;2.80;;
29848;SDS011;16728;50.832;5.590;2022-09-09T14:38:33;33.67;;;3.20;;
29848;SDS011;16728;50.832;5.590;2022-09-09T14:41:46;5.88;;;0.93;;
29848;SDS011;16728;50.832;5.590;2022-09-09T14:44:48;6.85;;;1.02;;
29848;SDS011;16728;50.832;5.590;2022-09-09T14:47:50;5.45;;;1.00;;
29848;SDS011;16728;50.832;5.590;2022-09-09T14:50:52;4.03;;;1.05;;
29848;SDS011;16728;50.832;5.590;2022-09-09T14:53:55;3.45;;;1.17;;
29848;SDS011;16728;50.832;5.590;2022-09-09T14:57:01;9.45;;;1.20;;
29848;SDS011;16728;50.832;5.590;2022-09-09T15:00:03;3.58;;;0.85;;
29848;SDS011;16728;50.832;5.590;2022-09-09T15:03:06;3.72;;;1.20;;
29848;SDS011;16728;50.832;5.590;2022-09-09T15:06:09;4.05;;;0.73;;
29848;SDS011;16728;50.832;5.590;2022-09-09T15:09:13;6.47;;;1.13;;
29848;SDS011;16728;50.832;5.590;2022-09-09T15:12:16;4.03;;;1.05;;
29848;SDS011;16728;50.832;5.590;2022-09-09T15:15:20;2.92;;;0.73;;
29848;SDS011;16728;50.832;5.590;2022-09-09T15:18:22;5.22;;;1.30;;
29848;SDS011;16728;50.832;5.590;2022-09-09T15:21:26;6.03;;;1.08;;
29848;SDS011;16728;50.832;5.590;2022-09-09T15:24:30;5.03;;;0.82;;
29848;SDS011;16728;50.832;5.590;2022-09-09T15:27:31;7.40;;;1.30;;
29848;SDS011;16728;50.832;5.590;2022-09-09T15:33:37;3.65;;;1.30;;
29848;SDS011;16728;50.832;5.590;2022-09-09T15:36:40;2.70;;;1.17;;
29848;SDS011;16728;50.832;5.590;2022-09-09T15:39:44;8.02;;;2.15;;
29848;SDS011;16728;50.832;5.590;2022-09-09T15:42:46;4.85;;;1.60;;
29848;SDS011;16728;50.832;5.590;2022-09-09T15:45:52;4.20;;;1.35;;
29848;SDS011;16728;50.832;5.590;2022-09-09T15:49:03;3.53;;;1.23;;
29848;SDS011;16728;50.832;5.590;2022-09-09T15:52:08;3.85;;;1.10;;
29848;SDS011;16728;50.832;5.590;2022-09-09T15:55:13;7.18;;;1.30;;
29848;SDS011;16728;50.832;5.590;2022-09-09T15:58:15;3.20;;;1.00;;
29848;SDS011;16728;50.832;5.590;2022-09-09T16:01:17;1.58;;;0.68;;
29848;SDS011;16728;50.832;5.590;2022-09-09T16:04:21;4.85;;;0.85;;
29848;SDS011;16728;50.832;5.590;2022-09-09T16:07:24;2.35;;;0.90;;
29848;SDS011;16728;50.832;5.590;2022-09-09T16:10:35;6.85;;;1.15;;
29848;SDS011;16728;50.832;5.590;2022-09-09T16:13:37;3.72;;;1.15;;
29848;SDS011;16728;50.832;5.590;2022-09-09T16:16:40;2.67;;;1.02;;
29848;SDS011;16728;50.832;5.590;2022-09-09T16:19:43;4.30;;;1.30;;
29848;SDS011;16728;50.832;5.590;2022-09-09T16:22:45;3.05;;;1.05;;
29848;SDS011;16728;50.832;5.590;2022-09-09T16:25:54;3.83;;;1.00;;
29848;SDS011;16728;50.832;5.590;2022-09-09T16:28:56;5.65;;;1.05;;
29848;SDS011;16728;50.832;5.590;2022-09-09T16:32:00;2.63;;;0.90;;
29848;SDS011;16728;50.832;5.590;2022-09-09T16:35:04;4.50;;;1.15;;
29848;SDS011;16728;50.832;5.590;2022-09-09T16:38:06;4.43;;;1.00;;
29848;SDS011;16728;50.832;5.590;2022-09-09T16:41:09;3.05;;;1.15;;
29848;SDS011;16728;50.832;5.590;2022-09-09T16:44:13;2.30;;;1.40;;
29848;SDS011;16728;50.832;5.590;2022-09-09T16:47:18;3.42;;;1.45;;
29848;SDS011;16728;50.832;5.590;2022-09-09T16:50:20;6.72;;;1.48;;
29848;SDS011;16728;50.832;5.590;2022-09-09T16:53:22;4.45;;;1.10;;
29848;SDS011;16728;50.832;5.590;2022-09-09T16:56:25;12.38;;;1.95;;
29848;SDS011;16728;50.832;5.590;2022-09-09T16:59:28;11.48;;;2.42;;
29848;SDS011;16728;50.832;5.590;2022-09-09T17:02:31;12.52;;;2.80;;
29848;SDS011;16728;50.832;5.590;2022-09-09T17:05:33;4.38;;;2.00;;
29848;SDS011;16728;50.832;5.590;2022-09-09T17:11:58;3.80;;;1.40;;
29848;SDS011;16728;50.832;5.590;2022-09-09T17:15:02;5.45;;;1.50;;
29848;SDS011;16728;50.832;5.590;2022-09-09T17:21:41;4.38;;;1.27;;
29848;SDS011;16728;50.832;5.590;2022-09-09T17:25:03;3.95;;;1.40;;
29848;SDS011;16728;50.832;5.590;2022-09-09T17:28:05;3.83;;;1.13;;
29848;SDS011;16728;50.832;5.590;2022-09-09T17:31:08;4.85;;;1.50;;
29848;SDS011;16728;50.832;5.590;2022-09-09T17:34:12;3.35;;;1.10;;
29848;SDS011;16728;50.832;5.590;2022-09-09T17:37:14;3.00;;;0.70;;
29848;SDS011;16728;50.832;5.590;2022-09-09T17:40:16;5.68;;;1.13;;
29848;SDS011;16728;50.832;5.590;2022-09-09T17:43:19;3.88;;;1.30;;
29848;SDS011;16728;50.832;5.590;2022-09-09T17:46:22;4.18;;;1.38;;
29848;SDS011;16728;50.832;5.590;2022-09-09T17:49:24;6.57;;;1.27;;
29848;SDS011;16728;50.832;5.590;2022-09-09T17:52:26;6.00;;;0.98;;
29848;SDS011;16728;50.832;5.590;2022-09-09T17:55:27;4.28;;;1.00;;
29848;SDS011;16728;50.832;5.590;2022-09-09T17:58:29;6.07;;;1.10;;
29848;SDS011;16728;50.832;5.590;2022-09-09T18:01:33;6.57;;;1.30;;
29848;SDS011;16728;50.832;5.590;2022-09-09T18:04:36;4.45;;;1.30;;
29848;SDS011;16728;50.832;5.590;2022-09-09T18:07:39;4.65;;;1.20;;
29848;SDS011;16728;50.832;5.590;2022-09-09T18:10:41;7.45;;;1.23;;
29848;SDS011;16728;50.832;5.590;2022-09-09T18:13:50;5.97;;;1.45;;
29848;SDS011;16728;50.832;5.590;2022-09-09T18:16:54;3.75;;;1.10;;
29848;SDS011;16728;50.832;5.590;2022-09-09T18:19:56;8.07;;;1.17;;
29848;SDS011;16728;50.832;5.590;2022-09-09T18:22:59;5.75;;;1.00;;
29848;SDS011;16728;50.832;5.590;2022-09-09T18:26:13;4.45;;;1.05;;
29848;SDS011;16728;50.832;5.590;2022-09-09T18:29:19;5.20;;;1.10;;
29848;SDS011;16728;50.832;5.590;2022-09-09T18:32:24;9.43;;;1.50;;
29848;SDS011;16728;50.832;5.590;2022-09-09T18:35:27;2.33;;;0.93;;
29848;SDS011;16728;50.832;5.590;2022-09-09T18:38:31;5.85;;;1.27;;
29848;SDS011;16728;50.832;5.590;2022-09-09T18:41:36;2.67;;;1.00;;
29848;SDS011;16728;50.832;5.590;2022-09-09T18:44:40;3.38;;;0.80;;
29848;SDS011;16728;50.832;5.590;2022-09-09T18:47:43;6.15;;;1.30;;
29848;SDS011;16728;50.832;5.590;2022-09-09T18:50:49;6.43;;;0.90;;
29848;SDS011;16728;50.832;5.590;2022-09-09T18:53:53;2.63;;;1.00;;
29848;SDS011;16728;50.832;5.590;2022-09-09T18:56:56;3.33;;;1.20;;
29848;SDS011;16728;50.832;5.590;2022-09-09T19:00:00;4.85;;;1.40;;
29848;SDS011;16728;50.832;5.590;2022-09-09T19:03:03;3.37;;;0.90;;
29848;SDS011;16728;50.832;5.590;2022-09-09T19:06:06;5.10;;;1.15;;
29848;SDS011;16728;50.832;5.590;2022-09-09T19:09:15;4.32;;;1.17;;
29848;SDS011;16728;50.832;5.590;2022-09-09T19:12:18;3.65;;;1.20;;
29848;SDS011;16728;50.832;5.590;2022-09-09T19:15:19;4.75;;;1.13;;
29848;SDS011;16728;50.832;5.590;2022-09-09T19:18:21;4.85;;;1.45;;
29848;SDS011;16728;50.832;5.590;2022-09-09T19:21:25;6.93;;;0.93;;
29848;SDS011;16728;50.832;5.590;2022-09-09T19:24:31;6.40;;;1.30;;
29848;SDS011;16728;50.832;5.590;2022-09-09T19:27:33;3.85;;;1.25;;
29848;SDS011;16728;50.832;5.590;2022-09-09T19:30:35;3.33;;;1.10;;
29848;SDS011;16728;50.832;5.590;2022-09-09T19:33:37;2.42;;;1.10;;
29848;SDS011;16728;50.832;5.590;2022-09-09T19:36:40;6.45;;;1.30;;
29848;SDS011;16728;50.832;5.590;2022-09-09T19:39:49;6.55;;;1.45;;
29848;SDS011;16728;50.832;5.590;2022-09-09T19:42:52;4.85;;;1.10;;
29848;SDS011;16728;50.832;5.590;2022-09-09T19:45:57;4.28;;;1.30;;
29848;SDS011;16728;50.832;5.590;2022-09-09T19:49:03;3.67;;;1.70;;
29848;SDS011;16728;50.832;5.590;2022-09-09T19:52:06;5.30;;;1.70;;
29848;SDS011;16728;50.832;5.590;2022-09-09T19:55:08;6.32;;;1.63;;
29848;SDS011;16728;50.832;5.590;2022-09-09T19:58:11;5.45;;;1.48;;
29848;SDS011;16728;50.832;5.590;2022-09-09T20:01:15;8.15;;;1.70;;
29848;SDS011;16728;50.832;5.590;2022-09-09T20:04:22;7.45;;;1.77;;
29848;SDS011;16728;50.832;5.590;2022-09-09T20:07:25;4.75;;;1.45;;
29848;SDS011;16728;50.832;5.590;2022-09-09T20:10:30;5.43;;;1.40;;
29848;SDS011;16728;50.832;5.590;2022-09-09T20:13:35;6.70;;;1.55;;
29848;SDS011;16728;50.832;5.590;2022-09-09T20:16:39;8.38;;;1.48;;
29848;SDS011;16728;50.832;5.590;2022-09-09T20:19:41;4.68;;;1.35;;
29848;SDS011;16728;50.832;5.590;2022-09-09T20:22:43;4.65;;;1.20;;
29848;SDS011;16728;50.832;5.590;2022-09-09T20:25:46;2.95;;;1.05;;
29848;SDS011;16728;50.832;5.590;2022-09-09T20:28:55;5.10;;;1.17;;
29848;SDS011;16728;50.832;5.590;2022-09-09T20:31:57;7.47;;;1.70;;
29848;SDS011;16728;50.832;5.590;2022-09-09T20:34:59;9.77;;;2.28;;
29848;SDS011;16728;50.832;5.590;2022-09-09T20:38:01;8.10;;;2.30;;
29848;SDS011;16728;50.832;5.590;2022-09-09T20:41:03;7.75;;;2.25;;
29848;SDS011;16728;50.832;5.590;2022-09-09T20:44:06;5.50;;;1.90;;
29848;SDS011;16728;50.832;5.590;2022-09-09T20:47:12;6.88;;;1.77;;
29848;SDS011;16728;50.832;5.590;2022-09-09T20:50:14;5.97;;;1.67;;
29848;SDS011;16728;50.832;5.590;2022-09-09T20:53:16;2.80;;;1.23;;
29848;SDS011;16728;50.832;5.590;2022-09-09T20:56:17;2.92;;;1.02;;
29848;SDS011;16728;50.832;5.590;2022-09-09T20:59:24;2.07;;;0.70;;
29848;SDS011;16728;50.832;5.590;2022-09-09T21:02:27;1.95;;;0.77;;
29848;SDS011;16728;50.832;5.590;2022-09-09T21:05:29;1.70;;;0.52;;
29848;SDS011;16728;50.832;5.590;2022-09-09T21:08:31;1.58;;;0.57;;
29848;SDS011;16728;50.832;5.590;2022-09-09T21:11:34;1.65;;;0.68;;
29848;SDS011;16728;50.832;5.590;2022-09-09T21:14:36;3.45;;;0.65;;
29848;SDS011;16728;50.832;5.590;2022-09-09T21:17:38;1.38;;;0.52;;
29848;SDS011;16728;50.832;5.590;2022-09-09T21:20:40;1.20;;;0.50;;
29848;SDS011;16728;50.832;5.590;2022-09-09T21:23:45;1.42;;;0.50;;
29848;SDS011;16728;50.832;5.590;2022-09-09T21:26:48;1.08;;;0.47;;